createdAt,value
2017-11-05T00:00:30.747Z,7.48
2017-11-05T00:01:30.741Z,7.52
2017-11-05T00:02:30.741Z,7.61
2017-11-05T00:03:30.371Z,7.68
2017-11-05T00:04:30.699Z,7.67
2017-11-05T00:05:30.346Z,7.61
2017-11-05T00:06:30.678Z,7.64
2017-11-05T00:07:30.662Z,7.58
2017-11-05T00:08:31.024Z,7.58
2017-11-05T00:09:30.297Z,7.59
2017-11-05T00:10:30.290Z,7.59
2017-11-05T00:11:30.612Z,7.63
2017-11-05T00:12:30.267Z,7.59
2017-11-05T00:13:30.247Z,7.64
2017-11-05T00:14:30.232Z,7.58
2017-11-05T00:15:30.562Z,7.56
2017-11-05T00:16:30.234Z,7.58
2017-11-05T00:17:30.216Z,7.7
2017-11-05T00:18:30.569Z,7.63
2017-11-05T00:19:30.517Z,7.61
2017-11-05T00:20:30.499Z,7.58
2017-11-05T00:21:30.508Z,7.59
2017-11-05T00:22:30.499Z,7.56
2017-11-05T00:23:30.804Z,7.61
2017-11-05T00:24:30.795Z,7.64
2017-11-05T00:25:30.440Z,7.63
2017-11-05T00:26:30.434Z,7.73
2017-11-05T00:27:30.430Z,7.58
2017-11-05T00:28:30.421Z,7.56
2017-11-05T00:29:30.051Z,7.58
2017-11-05T00:30:30.401Z,7.59
2017-11-05T00:31:30.372Z,7.55
2017-11-05T00:32:30.359Z,7.63
2017-11-05T00:33:30.341Z,7.64
2017-11-05T00:34:30.328Z,7.73
2017-11-05T00:35:29.980Z,7.61
2017-11-05T00:36:29.970Z,7.64
2017-11-05T00:37:30.632Z,7.61
2017-11-05T00:38:29.939Z,7.61
2017-11-05T00:39:29.949Z,7.61
2017-11-05T00:40:30.594Z,7.58
2017-11-05T00:41:29.904Z,7.59
2017-11-05T00:42:33.244Z,7.61
2017-11-05T00:43:30.558Z,7.58
2017-11-05T00:44:30.223Z,7.63
2017-11-05T00:45:29.875Z,7.61
2017-11-05T00:46:30.541Z,7.64
2017-11-05T00:47:29.829Z,7.64
2017-11-05T00:48:29.820Z,7.61
2017-11-05T00:49:29.805Z,7.67
2017-11-05T00:50:29.807Z,7.55
2017-11-05T00:51:30.134Z,7.67
2017-11-05T00:52:29.768Z,7.61
2017-11-05T00:53:30.437Z,7.61
2017-11-05T00:54:30.103Z,7.71
2017-11-05T00:55:30.080Z,7.78
2017-11-05T00:56:30.398Z,7.75
2017-11-05T00:57:30.045Z,7.59
2017-11-05T00:58:30.039Z,7.59
2017-11-05T00:59:29.701Z,7.58
2017-11-05T01:00:30.012Z,7.61
2017-11-05T01:01:30.008Z,7.63
2017-11-05T01:02:29.991Z,7.74
2017-11-05T01:03:30.326Z,7.61
2017-11-05T01:04:29.624Z,7.74
2017-11-05T01:05:29.631Z,7.71
2017-11-05T01:06:29.599Z,7.73
2017-11-05T01:07:29.587Z,7.64
2017-11-05T01:08:29.581Z,7.71
2017-11-05T01:09:30.242Z,7.73
2017-11-05T01:10:29.564Z,7.71
2017-11-05T01:11:29.538Z,7.75
2017-11-05T01:12:30.206Z,7.77
2017-11-05T01:13:29.852Z,7.63
2017-11-05T01:14:29.512Z,7.63
2017-11-05T01:15:29.847Z,7.68
2017-11-05T01:16:29.477Z,7.64
2017-11-05T01:17:29.467Z,7.63
2017-11-05T01:18:29.791Z,7.64
2017-11-05T01:19:29.787Z,7.64
2017-11-05T01:20:29.428Z,7.56
2017-11-05T01:21:29.766Z,7.59
2017-11-05T01:22:29.404Z,7.61
2017-11-05T01:23:29.392Z,7.73
2017-11-05T01:24:29.723Z,7.71
2017-11-05T01:25:29.365Z,7.63
2017-11-05T01:26:29.378Z,7.61
2017-11-05T01:27:29.343Z,7.61
2017-11-05T01:28:29.676Z,7.59
2017-11-05T01:29:29.322Z,7.63
2017-11-05T01:30:29.659Z,7.73
2017-11-05T01:31:29.303Z,7.59
2017-11-05T01:32:29.620Z,7.56
2017-11-05T01:33:29.627Z,7.58
2017-11-05T01:34:29.262Z,7.58
2017-11-05T01:35:29.245Z,7.7
2017-11-05T01:36:29.587Z,7.55
2017-11-05T01:37:29.559Z,7.61
2017-11-05T01:38:29.551Z,7.58
2017-11-05T01:39:29.537Z,7.64
2017-11-05T01:40:29.546Z,7.58
2017-11-05T01:41:29.172Z,7.63
2017-11-05T01:42:29.498Z,7.63
2017-11-05T01:43:29.485Z,7.64
2017-11-05T01:44:29.816Z,7.59
2017-11-05T01:45:29.124Z,7.63
2017-11-05T01:46:29.109Z,7.64
2017-11-05T01:47:29.100Z,7.63
2017-11-05T01:48:29.428Z,7.59
2017-11-05T01:49:29.105Z,7.56
2017-11-05T01:50:29.402Z,7.64
2017-11-05T01:51:29.073Z,7.58
2017-11-05T01:52:29.059Z,7.61
2017-11-05T01:53:29.026Z,7.58
2017-11-05T01:54:29.014Z,7.61
2017-11-05T01:55:29.012Z,7.67
2017-11-05T01:56:29.690Z,7.56
2017-11-05T01:57:28.997Z,7.58
2017-11-05T01:58:29.303Z,7.61
2017-11-05T01:59:28.952Z,7.59
2017-11-05T02:00:29.296Z,7.59
2017-11-05T02:01:29.277Z,7.55
2017-11-05T02:02:28.919Z,7.63
2017-11-05T02:03:29.269Z,7.61
2017-11-05T02:04:29.235Z,7.64
2017-11-05T02:05:29.219Z,7.63
2017-11-05T02:06:29.556Z,7.63
2017-11-05T02:07:28.857Z,7.64
2017-11-05T02:08:29.186Z,7.7
2017-11-05T02:09:29.177Z,7.61
2017-11-05T02:10:28.819Z,7.67
2017-11-05T02:11:28.828Z,7.59
2017-11-05T02:12:29.147Z,7.61
2017-11-05T02:13:29.460Z,7.67
2017-11-05T02:14:28.786Z,7.74
2017-11-05T02:15:29.120Z,7.75
2017-11-05T02:16:28.751Z,7.8
2017-11-05T02:17:28.735Z,7.71
2017-11-05T02:18:29.059Z,7.78
2017-11-05T02:19:28.710Z,7.77
2017-11-05T02:20:28.697Z,7.73
2017-11-05T02:21:29.364Z,7.73
2017-11-05T02:22:29.029Z,7.71
2017-11-05T02:23:29.000Z,7.77
2017-11-05T02:24:28.648Z,7.78
2017-11-05T02:25:29.316Z,7.73
2017-11-05T02:26:28.964Z,7.78
2017-11-05T02:27:29.295Z,7.77
2017-11-05T02:28:28.939Z,7.75
2017-11-05T02:29:28.587Z,7.73
2017-11-05T02:30:28.919Z,7.75
2017-11-05T02:31:28.569Z,7.74
2017-11-05T02:32:28.555Z,7.75
2017-11-05T02:33:28.537Z,7.75
2017-11-05T02:34:28.527Z,7.82
2017-11-05T02:35:28.869Z,7.74
2017-11-05T02:36:28.904Z,7.86
2017-11-05T02:37:28.855Z,7.77
2017-11-05T02:38:28.481Z,7.78
2017-11-05T02:39:28.466Z,7.86
2017-11-05T02:40:28.800Z,7.86
2017-11-05T02:41:28.447Z,7.82
2017-11-05T02:42:28.429Z,7.83
2017-11-05T02:43:28.420Z,7.8
2017-11-05T02:44:29.103Z,7.75
2017-11-05T02:45:28.398Z,7.83
2017-11-05T02:46:28.734Z,7.86
2017-11-05T02:47:28.371Z,7.73
2017-11-05T02:48:28.698Z,7.71
2017-11-05T02:49:28.347Z,7.77
2017-11-05T02:50:28.672Z,7.59
2017-11-05T02:51:28.662Z,7.58
2017-11-05T02:52:29.017Z,7.56
2017-11-05T02:53:28.297Z,7.54
2017-11-05T02:54:28.285Z,7.58
2017-11-05T02:55:28.950Z,7.63
2017-11-05T02:56:28.619Z,7.59
2017-11-05T02:57:28.260Z,7.59
2017-11-05T02:58:28.577Z,7.64
2017-11-05T02:59:28.560Z,7.64
2017-11-05T03:00:28.580Z,7.64
2017-11-05T03:01:28.548Z,7.73
2017-11-05T03:02:28.567Z,7.67
2017-11-05T03:03:28.518Z,7.63
2017-11-05T03:04:28.171Z,7.68
2017-11-05T03:05:28.489Z,7.74
2017-11-05T03:06:28.828Z,7.74
2017-11-05T03:07:28.470Z,7.77
2017-11-05T03:08:28.452Z,7.73
2017-11-05T03:09:28.105Z,7.73
2017-11-05T03:10:28.430Z,7.74
2017-11-05T03:11:28.421Z,7.75
2017-11-05T03:12:28.065Z,7.7
2017-11-05T03:13:28.393Z,7.74
2017-11-05T03:14:28.389Z,7.77
2017-11-05T03:15:28.369Z,7.78
2017-11-05T03:16:28.716Z,7.77
2017-11-05T03:17:28.696Z,7.67
2017-11-05T03:18:28.331Z,7.71
2017-11-05T03:19:27.981Z,7.68
2017-11-05T03:20:28.309Z,7.67
2017-11-05T03:21:27.970Z,7.63
2017-11-05T03:22:28.284Z,7.63
2017-11-05T03:23:28.283Z,7.7
2017-11-05T03:24:27.939Z,7.56
2017-11-05T03:25:27.918Z,7.61
2017-11-05T03:26:27.896Z,7.58
2017-11-05T03:27:27.897Z,7.55
2017-11-05T03:28:28.231Z,7.67
2017-11-05T03:29:27.859Z,7.61
2017-11-05T03:30:28.533Z,7.61
2017-11-05T03:31:27.838Z,7.59
2017-11-05T03:32:28.163Z,7.59
2017-11-05T03:33:27.811Z,7.58
2017-11-05T03:34:28.476Z,7.61
2017-11-05T03:35:27.787Z,7.55
2017-11-05T03:36:28.119Z,7.61
2017-11-05T03:37:30.500Z,7.63
2017-11-05T03:38:27.747Z,7.63
2017-11-05T03:39:28.099Z,7.58
2017-11-05T03:40:27.726Z,7.56
2017-11-05T03:41:27.734Z,7.63
2017-11-05T03:42:27.700Z,7.56
2017-11-05T03:43:28.036Z,7.47
2017-11-05T03:44:28.043Z,7.49
2017-11-05T03:45:27.663Z,7.54
2017-11-05T03:46:27.992Z,7.48
2017-11-05T03:47:27.638Z,7.51
2017-11-05T03:48:27.967Z,7.48
2017-11-05T03:49:27.627Z,7.45
2017-11-05T03:50:27.616Z,7.48
2017-11-05T03:51:27.936Z,7.48
2017-11-05T03:52:27.596Z,7.51
2017-11-05T03:53:27.566Z,7.41
2017-11-05T03:54:27.894Z,7.45
2017-11-05T03:55:27.543Z,7.51
2017-11-05T03:56:27.888Z,7.39
2017-11-05T03:57:27.518Z,7.51
2017-11-05T03:58:27.505Z,7.52
2017-11-05T03:59:27.834Z,7.41
2017-11-05T04:00:27.820Z,7.31
2017-11-05T04:01:27.806Z,7.49
2017-11-05T04:02:27.802Z,7.39
2017-11-05T04:03:27.798Z,7.37
2017-11-05T04:04:28.172Z,7.39
2017-11-05T04:05:27.760Z,7.39
2017-11-05T04:06:28.088Z,7.37
2017-11-05T04:07:27.414Z,7.41
2017-11-05T04:08:27.385Z,7.39
2017-11-05T04:09:27.372Z,7.31
2017-11-05T04:10:27.358Z,7.37
2017-11-05T04:11:27.688Z,7.29
2017-11-05T04:12:27.341Z,7.31
2017-11-05T04:13:27.321Z,7.39
2017-11-05T04:14:27.307Z,7.37
2017-11-05T04:15:27.991Z,7.34
2017-11-05T04:16:27.622Z,7.31
2017-11-05T04:17:27.608Z,7.39
2017-11-05T04:18:27.605Z,7.36
2017-11-05T04:19:27.246Z,7.41
2017-11-05T04:20:27.235Z,7.39
2017-11-05T04:21:27.254Z,7.37
2017-11-05T04:22:27.548Z,7.31
2017-11-05T04:23:27.203Z,7.34
2017-11-05T04:24:27.185Z,7.39
2017-11-05T04:25:27.189Z,7.4
2017-11-05T04:26:27.497Z,7.45
2017-11-05T04:27:27.147Z,7.4
2017-11-05T04:28:27.135Z,7.45
2017-11-05T04:29:27.463Z,7.45
2017-11-05T04:30:27.110Z,7.39
2017-11-05T04:31:27.454Z,7.45
2017-11-05T04:32:27.100Z,7.54
2017-11-05T04:33:27.758Z,7.54
2017-11-05T04:34:27.418Z,7.67
2017-11-05T04:35:27.726Z,7.73
2017-11-05T04:36:27.376Z,7.68
2017-11-05T04:37:27.023Z,7.73
2017-11-05T04:38:27.356Z,7.85
2017-11-05T04:39:27.002Z,7.78
2017-11-05T04:40:27.332Z,7.88
2017-11-05T04:41:27.702Z,7.89
2017-11-05T04:42:26.964Z,7.98
2017-11-05T04:43:27.302Z,7.98
2017-11-05T04:44:26.938Z,7.91
2017-11-05T04:45:27.264Z,7.99
2017-11-05T04:46:26.933Z,8.04
2017-11-05T04:47:26.904Z,8.04
2017-11-05T04:48:27.228Z,8.07
2017-11-05T04:49:27.556Z,8.09
2017-11-05T04:50:31.319Z,8.09
2017-11-05T04:51:26.853Z,8.13
2017-11-05T04:52:27.180Z,8.09
2017-11-05T04:53:27.190Z,8.07
2017-11-05T04:54:27.164Z,8.07
2017-11-05T04:55:26.826Z,8.06
2017-11-05T04:56:27.132Z,8.04
2017-11-05T04:57:27.123Z,8.13
2017-11-05T04:58:26.768Z,8.13
2017-11-05T04:59:27.130Z,8.07
2017-11-05T05:00:27.131Z,8.09
2017-11-05T05:01:26.730Z,8.09
2017-11-05T05:02:27.166Z,8.04
2017-11-05T05:03:27.048Z,8.1
2017-11-05T05:04:27.394Z,8.07
2017-11-05T05:05:27.360Z,8.04
2017-11-05T05:06:27.359Z,7.99
2017-11-05T05:07:26.659Z,8.07
2017-11-05T05:08:26.999Z,8.04
2017-11-05T05:09:26.986Z,7.98
2017-11-05T05:10:26.985Z,7.95
2017-11-05T05:11:26.619Z,7.99
2017-11-05T05:12:26.954Z,7.98
2017-11-05T05:13:26.596Z,7.96
2017-11-05T05:14:26.599Z,7.98
2017-11-05T05:15:26.570Z,7.96
2017-11-05T05:16:27.229Z,7.96
2017-11-05T05:17:26.540Z,8.04
2017-11-05T05:18:26.867Z,7.95
2017-11-05T05:19:26.855Z,8.07
2017-11-05T05:20:26.505Z,8.09
2017-11-05T05:21:26.846Z,8.01
2017-11-05T05:22:27.194Z,8.07
2017-11-05T05:23:27.159Z,8.01
2017-11-05T05:24:26.456Z,8.04
2017-11-05T05:25:26.451Z,8.06
2017-11-05T05:26:26.770Z,8.04
2017-11-05T05:27:26.418Z,8.03
2017-11-05T05:28:26.746Z,7.99
2017-11-05T05:29:26.734Z,7.99
2017-11-05T05:30:26.724Z,8.04
2017-11-05T05:31:27.074Z,8.07
2017-11-05T05:32:26.701Z,8.03
2017-11-05T05:33:26.704Z,7.96
2017-11-05T05:34:27.018Z,7.96
2017-11-05T05:35:26.326Z,7.99
2017-11-05T05:36:26.661Z,7.93
2017-11-05T05:37:26.301Z,7.95
2017-11-05T05:38:26.971Z,7.93
2017-11-05T05:39:26.649Z,7.86
2017-11-05T05:40:26.606Z,7.85
2017-11-05T05:41:26.596Z,7.83
2017-11-05T05:42:26.243Z,7.8
2017-11-05T05:43:26.229Z,7.86
2017-11-05T05:44:26.559Z,7.8
2017-11-05T05:45:26.544Z,7.8
2017-11-05T05:46:26.546Z,7.77
2017-11-05T05:47:26.521Z,7.74
2017-11-05T05:48:26.191Z,7.86
2017-11-05T05:49:26.503Z,7.75
2017-11-05T05:50:26.144Z,7.77
2017-11-05T05:51:26.473Z,7.78
2017-11-05T05:52:26.821Z,7.8
2017-11-05T05:53:26.446Z,7.82
2017-11-05T05:54:26.453Z,7.77
2017-11-05T05:55:26.084Z,7.8
2017-11-05T05:56:26.072Z,7.85
2017-11-05T05:57:26.061Z,7.82
2017-11-05T05:58:26.048Z,7.8
2017-11-05T05:59:26.735Z,7.75
2017-11-05T06:00:26.024Z,7.78
2017-11-05T06:01:26.694Z,7.74
2017-11-05T06:02:26.340Z,7.8
2017-11-05T06:03:26.325Z,7.73
2017-11-05T06:04:25.975Z,7.74
2017-11-05T06:05:25.976Z,7.73
2017-11-05T06:06:26.294Z,7.78
2017-11-05T06:07:25.940Z,7.77
2017-11-05T06:08:25.927Z,7.74
2017-11-05T06:09:25.915Z,7.82
2017-11-05T06:10:25.904Z,7.74
2017-11-05T06:11:26.257Z,7.82
2017-11-05T06:12:26.220Z,7.85
2017-11-05T06:13:26.220Z,7.78
2017-11-05T06:14:26.211Z,7.77
2017-11-05T06:15:26.186Z,7.77
2017-11-05T06:16:26.188Z,7.8
2017-11-05T06:17:25.819Z,7.8
2017-11-05T06:18:26.149Z,7.78
2017-11-05T06:19:25.798Z,7.78
2017-11-05T06:20:26.122Z,7.77
2017-11-05T06:21:25.772Z,7.8
2017-11-05T06:22:26.095Z,7.89
2017-11-05T06:23:25.749Z,7.85
2017-11-05T06:24:26.078Z,7.93
2017-11-05T06:25:25.721Z,7.98
2017-11-05T06:26:26.045Z,7.92
2017-11-05T06:27:26.040Z,8.03
2017-11-05T06:28:25.685Z,8.03
2017-11-05T06:29:25.672Z,8.1
2017-11-05T06:30:25.661Z,8.24
2017-11-05T06:31:25.648Z,8.19
2017-11-05T06:32:26.011Z,8.19
2017-11-05T06:33:25.984Z,8.25
2017-11-05T06:34:25.613Z,8.31
2017-11-05T06:35:25.940Z,8.28
2017-11-05T06:36:25.927Z,8.39
2017-11-05T06:37:25.918Z,8.35
2017-11-05T06:38:25.905Z,8.34
2017-11-05T06:39:25.553Z,8.32
2017-11-05T06:40:26.230Z,8.42
2017-11-05T06:41:25.891Z,8.4
2017-11-05T06:42:26.202Z,8.4
2017-11-05T06:43:25.504Z,8.43
2017-11-05T06:44:25.845Z,8.39
2017-11-05T06:45:25.859Z,8.43
2017-11-05T06:46:25.468Z,8.44
2017-11-05T06:47:25.459Z,8.44
2017-11-05T06:48:25.446Z,8.46
2017-11-05T06:49:25.775Z,8.49
2017-11-05T06:50:25.423Z,8.54
2017-11-05T06:51:25.409Z,8.57
2017-11-05T06:52:25.737Z,8.57
2017-11-05T06:53:25.726Z,8.62
2017-11-05T06:54:25.375Z,8.58
2017-11-05T06:55:25.713Z,8.64
2017-11-05T06:56:25.352Z,8.53
2017-11-05T06:57:25.678Z,8.67
2017-11-05T06:58:25.683Z,8.64
2017-11-05T06:59:25.317Z,8.69
2017-11-05T07:00:25.326Z,8.74
2017-11-05T07:01:25.636Z,8.71
2017-11-05T07:02:25.283Z,8.83
2017-11-05T07:03:25.276Z,8.86
2017-11-05T07:04:25.260Z,8.95
2017-11-05T07:05:25.591Z,8.89
2017-11-05T07:06:25.578Z,9
2017-11-05T07:07:25.565Z,8.98
2017-11-05T07:08:25.554Z,8.86
2017-11-05T07:09:25.201Z,9
2017-11-05T07:10:25.535Z,8.95
2017-11-05T07:11:25.525Z,8.98
2017-11-05T07:12:25.531Z,8.95
2017-11-05T07:13:25.496Z,9.03
2017-11-05T07:14:25.485Z,8.98
2017-11-05T07:15:25.479Z,9
2017-11-05T07:16:25.144Z,9.05
2017-11-05T07:17:25.451Z,9.03
2017-11-05T07:18:25.137Z,9
2017-11-05T07:19:25.438Z,9.16
2017-11-05T07:20:25.423Z,9.21
2017-11-05T07:21:25.075Z,9.19
2017-11-05T07:22:25.056Z,9.17
2017-11-05T07:23:25.069Z,9.19
2017-11-05T07:24:25.431Z,9.16
2017-11-05T07:25:25.039Z,9.2
2017-11-05T07:26:25.011Z,9.21
2017-11-05T07:27:25.348Z,9.32
2017-11-05T07:28:24.988Z,9.35
2017-11-05T07:29:25.326Z,9.35
2017-11-05T07:30:24.975Z,9.38
2017-11-05T07:31:25.297Z,9.48
2017-11-05T07:32:24.971Z,9.44
2017-11-05T07:33:25.193Z,9.47
2017-11-05T07:34:24.924Z,9.47
2017-11-05T07:35:25.266Z,9.52
2017-11-05T07:36:25.581Z,9.48
2017-11-05T07:37:25.568Z,9.48
2017-11-05T07:38:24.912Z,9.57
2017-11-05T07:39:25.207Z,9.59
2017-11-05T07:40:25.242Z,9.55
2017-11-05T07:41:25.199Z,9.63
2017-11-05T07:42:25.210Z,9.7
2017-11-05T07:43:24.825Z,9.71
2017-11-05T07:44:24.850Z,9.66
2017-11-05T07:45:24.806Z,9.7
2017-11-05T07:46:25.190Z,9.77
2017-11-05T07:47:24.783Z,9.72
2017-11-05T07:48:25.116Z,9.84
2017-11-05T07:49:24.773Z,9.84
2017-11-05T07:50:24.807Z,9.95
2017-11-05T07:51:24.742Z,9.82
2017-11-05T07:52:25.101Z,9.95
2017-11-05T07:53:25.056Z,9.9
2017-11-05T07:54:24.710Z,10.03
2017-11-05T07:55:25.037Z,9.99
2017-11-05T07:56:24.718Z,10.02
2017-11-05T07:57:25.030Z,10.05
2017-11-05T07:58:24.667Z,10
2017-11-05T07:59:24.661Z,10.05
2017-11-05T08:00:25.006Z,9.98
2017-11-05T08:01:24.974Z,10.08
2017-11-05T08:02:24.989Z,10.02
2017-11-05T08:03:24.617Z,10.17
2017-11-05T08:04:24.952Z,10.18
2017-11-05T08:05:24.594Z,10.2
2017-11-05T08:06:24.582Z,10.17
2017-11-05T08:07:24.576Z,10.26
2017-11-05T08:08:24.905Z,10.31
2017-11-05T08:09:25.234Z,10.25
2017-11-05T08:10:24.584Z,10.31
2017-11-05T08:11:24.533Z,10.44
2017-11-05T08:12:24.524Z,10.52
2017-11-05T08:13:24.514Z,10.52
2017-11-05T08:14:24.503Z,10.54
2017-11-05T08:15:24.493Z,10.69
2017-11-05T08:16:24.482Z,10.66
2017-11-05T08:17:24.475Z,10.69
2017-11-05T08:18:24.490Z,10.67
2017-11-05T08:19:24.478Z,10.8
2017-11-05T08:20:25.124Z,10.88
2017-11-05T08:21:24.795Z,10.9
2017-11-05T08:22:24.423Z,11.06
2017-11-05T08:23:24.757Z,11.1
2017-11-05T08:24:24.784Z,11.08
2017-11-05T08:25:24.397Z,11.23
2017-11-05T08:26:24.739Z,11.31
2017-11-05T08:27:24.393Z,11.35
2017-11-05T08:28:25.058Z,11.34
2017-11-05T08:29:24.711Z,11.28
2017-11-05T08:30:24.701Z,11.38
2017-11-05T08:31:24.339Z,11.35
2017-11-05T08:32:24.331Z,11.39
2017-11-05T08:33:24.661Z,11.31
2017-11-05T08:34:24.994Z,11.31
2017-11-05T08:35:24.643Z,11.3
2017-11-05T08:36:24.646Z,11.26
2017-11-05T08:37:24.303Z,11.24
2017-11-05T08:38:24.614Z,11.16
2017-11-05T08:39:24.622Z,11.16
2017-11-05T08:40:24.597Z,11.09
2017-11-05T08:41:24.270Z,11.13
2017-11-05T08:42:24.581Z,11.12
2017-11-05T08:43:24.232Z,11.13
2017-11-05T08:44:24.224Z,11.15
2017-11-05T08:45:24.891Z,11.1
2017-11-05T08:46:24.544Z,11.15
2017-11-05T08:47:24.203Z,11.13
2017-11-05T08:48:24.550Z,11.16
2017-11-05T08:49:24.197Z,11.13
2017-11-05T08:50:24.183Z,11.15
2017-11-05T08:51:24.498Z,11.15
2017-11-05T08:52:24.848Z,11
2017-11-05T08:53:24.142Z,11.05
2017-11-05T08:54:24.146Z,11.02
2017-11-05T08:55:24.123Z,10.95
2017-11-05T08:56:24.530Z,10.88
2017-11-05T08:57:24.443Z,10.91
2017-11-05T08:58:24.433Z,10.88
2017-11-05T08:59:24.441Z,10.84
2017-11-05T09:00:24.418Z,10.79
2017-11-05T09:01:24.066Z,10.76
2017-11-05T09:02:24.398Z,10.67
2017-11-05T09:03:24.742Z,10.66
2017-11-05T09:04:29.959Z,10.72
2017-11-05T09:05:24.369Z,10.59
2017-11-05T09:06:24.381Z,10.61
2017-11-05T09:07:24.349Z,10.69
2017-11-05T09:08:24.013Z,10.69
2017-11-05T09:09:23.993Z,10.87
2017-11-05T09:10:24.322Z,11.05
2017-11-05T09:11:23.973Z,11.1
2017-11-05T09:12:23.967Z,11.31
2017-11-05T09:13:23.954Z,11.48
2017-11-05T09:14:24.292Z,11.73
2017-11-05T09:15:24.643Z,11.81
2017-11-05T09:16:23.933Z,12.05
2017-11-05T09:17:24.272Z,12.26
2017-11-05T09:18:23.909Z,12.4
2017-11-05T09:19:23.903Z,12.51
2017-11-05T09:20:24.583Z,12.59
2017-11-05T09:21:23.886Z,12.7
2017-11-05T09:22:24.216Z,12.84
2017-11-05T09:23:23.869Z,12.96
2017-11-05T09:24:23.859Z,12.96
2017-11-05T09:25:24.194Z,13.13
2017-11-05T09:26:24.533Z,13.21
2017-11-05T09:27:24.174Z,13.28
2017-11-05T09:28:24.167Z,13.32
2017-11-05T09:29:24.161Z,13.4
2017-11-05T09:30:24.496Z,13.51
2017-11-05T09:31:24.147Z,13.58
2017-11-05T09:32:24.135Z,13.69
2017-11-05T09:33:23.789Z,13.7
2017-11-05T09:34:23.782Z,13.65
2017-11-05T09:35:24.118Z,13.6
2017-11-05T09:36:23.781Z,13.68
2017-11-05T09:37:23.777Z,13.68
2017-11-05T09:38:24.097Z,13.72
2017-11-05T09:39:24.422Z,13.81
2017-11-05T09:40:24.081Z,13.78
2017-11-05T09:41:24.108Z,13.87
2017-11-05T09:42:23.722Z,13.83
2017-11-05T09:43:24.058Z,13.91
2017-11-05T09:44:23.733Z,13.93
2017-11-05T09:45:24.381Z,13.95
2017-11-05T09:46:23.695Z,13.94
2017-11-05T09:47:24.377Z,13.9
2017-11-05T09:48:24.021Z,13.86
2017-11-05T09:49:24.014Z,13.81
2017-11-05T09:50:24.005Z,13.94
2017-11-05T09:51:23.997Z,13.95
2017-11-05T09:52:23.654Z,14.01
2017-11-05T09:53:23.986Z,13.95
2017-11-05T09:54:24.335Z,14.13
2017-11-05T09:55:24.313Z,14.12
2017-11-05T09:56:23.970Z,14.19
2017-11-05T09:57:23.620Z,14.28
2017-11-05T09:58:23.615Z,14.33
2017-11-05T09:59:23.943Z,14.28
2017-11-05T10:00:23.599Z,14.26
2017-11-05T10:01:23.612Z,14.3
2017-11-05T10:02:24.280Z,14.23
2017-11-05T10:03:23.946Z,14.09
2017-11-05T10:04:23.576Z,14.16
2017-11-05T10:05:23.581Z,14.08
2017-11-05T10:06:23.901Z,14.05
2017-11-05T10:07:23.900Z,14.06
2017-11-05T10:08:24.254Z,14.05
2017-11-05T10:09:23.882Z,13.99
2017-11-05T10:10:23.877Z,13.95
2017-11-05T10:11:24.209Z,13.84
2017-11-05T10:12:23.521Z,13.81
2017-11-05T10:13:23.859Z,13.69
2017-11-05T10:14:23.512Z,13.72
2017-11-05T10:15:23.506Z,13.72
2017-11-05T10:16:23.502Z,13.68
2017-11-05T10:17:24.197Z,13.73
2017-11-05T10:18:23.484Z,13.7
2017-11-05T10:19:24.155Z,13.66
2017-11-05T10:20:23.471Z,13.7
2017-11-05T10:21:24.114Z,13.7
2017-11-05T10:22:23.797Z,13.76
2017-11-05T10:23:24.134Z,13.66
2017-11-05T10:24:24.155Z,13.62
2017-11-05T10:25:23.638Z,13.72
2017-11-05T10:26:23.769Z,13.58
2017-11-05T10:27:23.424Z,13.63
2017-11-05T10:28:23.425Z,13.7
2017-11-05T10:29:23.785Z,13.72
2017-11-05T10:30:23.754Z,13.72
2017-11-05T10:31:23.739Z,13.78
2017-11-05T10:32:23.737Z,13.84
2017-11-05T10:33:23.385Z,13.93
2017-11-05T10:34:23.377Z,14.01
2017-11-05T10:35:23.370Z,14.06
2017-11-05T10:36:23.367Z,14.12
2017-11-05T10:37:23.704Z,13.99
2017-11-05T10:38:23.352Z,13.95
2017-11-05T10:39:23.685Z,13.99
2017-11-05T10:40:23.338Z,14.02
2017-11-05T10:41:23.343Z,14.01
2017-11-05T10:42:23.325Z,13.94
2017-11-05T10:43:23.332Z,13.91
2017-11-05T10:44:23.313Z,13.93
2017-11-05T10:45:23.310Z,13.97
2017-11-05T10:46:23.314Z,14.01
2017-11-05T10:47:23.640Z,14.02
2017-11-05T10:48:23.284Z,14.08
2017-11-05T10:49:23.280Z,14.15
2017-11-05T10:50:23.611Z,14.27
2017-11-05T10:51:23.605Z,14.26
2017-11-05T10:52:23.279Z,14.3
2017-11-05T10:53:23.599Z,14.33
2017-11-05T10:54:23.263Z,14.27
2017-11-05T10:55:23.242Z,14.15
2017-11-05T10:56:23.574Z,14.08
2017-11-05T10:57:23.238Z,14.11
2017-11-05T10:58:23.561Z,13.93
2017-11-05T10:59:23.220Z,13.95
2017-11-05T11:00:23.224Z,13.84
2017-11-05T11:01:23.205Z,13.78
2017-11-05T11:02:23.196Z,13.65
2017-11-05T11:03:23.201Z,13.66
2017-11-05T11:04:23.526Z,13.63
2017-11-05T11:05:23.185Z,13.47
2017-11-05T11:06:23.171Z,13.53
2017-11-05T11:07:23.164Z,13.53
2017-11-05T11:08:23.504Z,13.54
2017-11-05T11:09:23.490Z,13.47
2017-11-05T11:10:23.830Z,13.55
2017-11-05T11:11:23.478Z,13.5
2017-11-05T11:12:23.140Z,13.51
2017-11-05T11:13:23.144Z,13.47
2017-11-05T11:14:23.842Z,13.39
2017-11-05T11:15:23.481Z,13.44
2017-11-05T11:16:23.466Z,13.35
2017-11-05T11:17:23.100Z,13.39
2017-11-05T11:18:23.430Z,13.31
2017-11-05T11:19:23.422Z,13.29
2017-11-05T11:20:23.416Z,13.29
2017-11-05T11:21:23.075Z,13.28
2017-11-05T11:22:23.413Z,13.2
2017-11-05T11:23:23.055Z,13.2
2017-11-05T11:24:23.401Z,13.21
2017-11-05T11:25:23.381Z,13.2
2017-11-05T11:26:23.377Z,13.11
2017-11-05T11:27:23.370Z,13.09
2017-11-05T11:28:23.364Z,13.14
2017-11-05T11:29:23.702Z,13.11
2017-11-05T11:30:23.347Z,13.1
2017-11-05T11:31:23.344Z,13.14
2017-11-05T11:32:22.994Z,12.98
2017-11-05T11:33:23.324Z,12.92
2017-11-05T11:34:23.672Z,12.88
2017-11-05T11:35:23.656Z,12.86
2017-11-05T11:36:23.317Z,12.74
2017-11-05T11:37:22.959Z,12.73
2017-11-05T11:38:23.296Z,12.7
2017-11-05T11:39:22.944Z,12.65
2017-11-05T11:40:23.274Z,12.59
2017-11-05T11:41:22.928Z,12.55
2017-11-05T11:42:22.940Z,12.56
2017-11-05T11:43:23.253Z,12.62
2017-11-05T11:44:22.918Z,12.48
2017-11-05T11:45:22.913Z,12.56
2017-11-05T11:46:23.235Z,12.62
2017-11-05T11:47:23.224Z,12.55
2017-11-05T11:48:23.215Z,12.63
2017-11-05T11:49:23.208Z,12.62
2017-11-05T11:50:23.546Z,12.59
2017-11-05T11:51:23.201Z,12.61
2017-11-05T11:52:23.187Z,12.66
2017-11-05T11:53:22.840Z,12.77
2017-11-05T11:54:23.173Z,12.77
2017-11-05T11:55:23.164Z,12.92
2017-11-05T11:56:23.196Z,12.92
2017-11-05T11:57:22.811Z,12.96
2017-11-05T11:58:23.142Z,12.96
2017-11-05T11:59:23.142Z,13.03
2017-11-05T12:00:23.131Z,13.11
2017-11-05T12:01:23.124Z,13.11
2017-11-05T12:02:22.780Z,13.19
2017-11-05T12:03:22.766Z,13.27
2017-11-05T12:04:23.103Z,13.29
2017-11-05T12:05:23.091Z,13.51
2017-11-05T12:06:22.743Z,13.51
2017-11-05T12:07:23.108Z,13.55
2017-11-05T12:08:23.083Z,13.66
2017-11-05T12:09:23.061Z,13.66
2017-11-05T12:10:22.728Z,13.79
2017-11-05T12:11:23.048Z,13.86
2017-11-05T12:12:22.700Z,13.95
2017-11-05T12:13:22.691Z,13.99
2017-11-05T12:14:23.032Z,14.01
2017-11-05T12:15:23.038Z,14.03
2017-11-05T12:16:23.351Z,13.95
2017-11-05T12:17:22.666Z,13.95
2017-11-05T12:18:23.004Z,13.95
2017-11-05T12:19:22.999Z,14.03
2017-11-05T12:20:23.325Z,13.95
2017-11-05T12:21:22.643Z,13.9
2017-11-05T12:22:22.978Z,13.81
2017-11-05T12:23:23.006Z,13.72
2017-11-05T12:24:22.996Z,13.62
2017-11-05T12:25:22.965Z,13.57
2017-11-05T12:26:22.619Z,13.53
2017-11-05T12:27:22.961Z,13.53
2017-11-05T12:28:22.931Z,13.48
2017-11-05T12:29:23.278Z,13.5
2017-11-05T12:30:22.599Z,13.45
2017-11-05T12:31:23.296Z,13.32
2017-11-05T12:32:22.927Z,13.29
2017-11-05T12:33:22.557Z,13.25
2017-11-05T12:34:22.551Z,13.1
2017-11-05T12:35:22.559Z,13.16
2017-11-05T12:36:22.536Z,13.11
2017-11-05T12:37:22.543Z,13.1
2017-11-05T12:38:22.869Z,13.09
2017-11-05T12:39:22.530Z,13.06
2017-11-05T12:40:22.557Z,12.99
2017-11-05T12:41:23.179Z,12.96
2017-11-05T12:42:22.852Z,12.84
2017-11-05T12:43:22.488Z,12.92
2017-11-05T12:44:22.861Z,12.89
2017-11-05T12:45:22.470Z,12.88
2017-11-05T12:46:22.803Z,12.84
2017-11-05T12:47:22.472Z,12.84
2017-11-05T12:48:22.799Z,12.83
2017-11-05T12:49:22.457Z,12.78
2017-11-05T12:50:22.799Z,12.77
2017-11-05T12:51:22.435Z,12.74
2017-11-05T12:52:22.421Z,12.76
2017-11-05T12:53:22.756Z,12.73
2017-11-05T12:54:22.768Z,12.74
2017-11-05T12:55:23.079Z,12.69
2017-11-05T12:56:22.744Z,12.73
2017-11-05T12:57:22.753Z,12.73
2017-11-05T12:58:22.374Z,12.73
2017-11-05T12:59:22.369Z,12.76
2017-11-05T13:00:22.729Z,12.73
2017-11-05T13:01:22.355Z,12.69
2017-11-05T13:02:23.041Z,12.66
2017-11-05T13:03:23.024Z,12.65
2017-11-05T13:04:22.687Z,12.63
2017-11-05T13:05:23.029Z,12.63
2017-11-05T13:06:22.315Z,12.61
2017-11-05T13:07:22.322Z,12.59
2017-11-05T13:08:22.668Z,12.65
2017-11-05T13:09:22.341Z,12.53
2017-11-05T13:10:22.641Z,12.48